sensor_id;sensor_type;location;lat;lon;timestamp;pressure;altitude;pressure_sealevel;temperature;humidity
84283;BME280;74440;52.600;21.450;2024-03-06T00:00:38;101900;;;6.36;81
84283;BME280;74440;52.600;21.450;2024-03-06T00:04:45;101900;;;6.43;81
84283;BME280;74440;52.600;21.450;2024-03-06T00:09:03;101900;;;6.45;81
84283;BME280;74440;52.600;21.450;2024-03-06T00:13:04;101900;;;6.32;81
84283;BME280;74440;52.600;21.450;2024-03-06T00:17:06;101900;;;6.36;80
84283;BME280;74440;52.600;21.450;2024-03-06T00:21:08;101900;;;6.42;80
84283;BME280;74440;52.600;21.450;2024-03-06T00:25:10;101900;;;6.44;80
84283;BME280;74440;52.600;21.450;2024-03-06T00:29:14;101900;;;6.27;80
84283;BME280;74440;52.600;21.450;2024-03-06T00:33:15;101900;;;6.28;80
84283;BME280;74440;52.600;21.450;2024-03-06T00:37:18;101900;;;6.31;80
84283;BME280;74440;52.600;21.450;2024-03-06T00:41:20;101900;;;6.38;79
84283;BME280;74440;52.600;21.450;2024-03-06T00:45:32;101900;;;6.39;79
84283;BME280;74440;52.600;21.450;2024-03-06T00:49:33;101900;;;6.22;79
84283;BME280;74440;52.600;21.450;2024-03-06T00:53:35;101900;;;6.23;79
84283;BME280;74440;52.600;21.450;2024-03-06T00:57:36;101900;;;6.25;79
84283;BME280;74440;52.600;21.450;2024-03-06T01:01:38;101900;;;6.26;79
84283;BME280;74440;52.600;21.450;2024-03-06T01:05:39;101900;;;6.06;79
84283;BME280;74440;52.600;21.450;2024-03-06T01:09:40;102000;;;6.07;79
84283;BME280;74440;52.600;21.450;2024-03-06T01:13:42;101900;;;6.01;79
84283;BME280;74440;52.600;21.450;2024-03-06T01:17:47;101900;;;6.00;79
84283;BME280;74440;52.600;21.450;2024-03-06T01:22:01;102000;;;6.00;79
84283;BME280;74440;52.600;21.450;2024-03-06T01:26:03;102000;;;5.83;79
84283;BME280;74440;52.600;21.450;2024-03-06T01:30:05;102000;;;5.83;79
84283;BME280;74440;52.600;21.450;2024-03-06T01:34:06;102000;;;5.88;79
84283;BME280;74440;52.600;21.450;2024-03-06T01:38:08;102000;;;5.98;78
84283;BME280;74440;52.600;21.450;2024-03-06T01:42:11;102000;;;5.79;79
84283;BME280;74440;52.600;21.450;2024-03-06T01:46:12;102000;;;5.86;78
84283;BME280;74440;52.600;21.450;2024-03-06T01:50:14;102000;;;5.90;78
84283;BME280;74440;52.600;21.450;2024-03-06T01:54:15;102000;;;5.95;78
84283;BME280;74440;52.600;21.450;2024-03-06T01:58:31;102000;;;6.01;78
84283;BME280;74440;52.600;21.450;2024-03-06T02:02:34;102000;;;5.81;78
84283;BME280;74440;52.600;21.450;2024-03-06T02:06:37;102000;;;5.83;77
84283;BME280;74440;52.600;21.450;2024-03-06T02:10:39;102000;;;5.85;77
84283;BME280;74440;52.600;21.450;2024-03-06T02:14:40;102000;;;5.93;77
84283;BME280;74440;52.600;21.450;2024-03-06T02:18:51;102000;;;5.74;77
84283;BME280;74440;52.600;21.450;2024-03-06T02:22:54;102000;;;5.79;77
84283;BME280;74440;52.600;21.450;2024-03-06T02:26:56;102000;;;5.85;77
84283;BME280;74440;52.600;21.450;2024-03-06T02:30:57;102000;;;5.88;77
84283;BME280;74440;52.600;21.450;2024-03-06T02:35:08;102000;;;5.87;76
84283;BME280;74440;52.600;21.450;2024-03-06T02:39:10;102000;;;5.67;76
84283;BME280;74440;52.600;21.450;2024-03-06T02:43:12;102000;;;5.68;76
84283;BME280;74440;52.600;21.450;2024-03-06T02:47:13;102000;;;5.71;75
84283;BME280;74440;52.600;21.450;2024-03-06T02:51:20;102000;;;5.74;75
84283;BME280;74440;52.600;21.450;2024-03-06T02:55:22;102000;;;5.57;75
84283;BME280;74440;52.600;21.450;2024-03-06T02:59:25;102000;;;5.56;75
84283;BME280;74440;52.600;21.450;2024-03-06T03:03:27;102000;;;5.53;75
84283;BME280;74440;52.600;21.450;2024-03-06T03:07:28;102000;;;5.50;74
84283;BME280;74440;52.600;21.450;2024-03-06T03:11:42;102000;;;5.49;74
84283;BME280;74440;52.600;21.450;2024-03-06T03:15:45;102000;;;5.34;75
84283;BME280;74440;52.600;21.450;2024-03-06T03:19:48;102000;;;5.39;75
84283;BME280;74440;52.600;21.450;2024-03-06T03:23:50;102000;;;5.39;75
84283;BME280;74440;52.600;21.450;2024-03-06T03:27:51;102000;;;5.45;74
84283;BME280;74440;52.600;21.450;2024-03-06T03:31:52;102000;;;5.29;75
84283;BME280;74440;52.600;21.450;2024-03-06T03:35:54;102000;;;5.34;75
84283;BME280;74440;52.600;21.450;2024-03-06T03:39:55;102000;;;5.36;74
84283;BME280;74440;52.600;21.450;2024-03-06T03:43:56;102000;;;5.39;74
84283;BME280;74440;52.600;21.450;2024-03-06T03:48:09;102000;;;5.36;74
84283;BME280;74440;52.600;21.450;2024-03-06T03:52:11;102000;;;5.22;74
84283;BME280;74440;52.600;21.450;2024-03-06T03:56:13;102000;;;5.25;74
84283;BME280;74440;52.600;21.450;2024-03-06T04:00:14;102000;;;5.33;74
84283;BME280;74440;52.600;21.450;2024-03-06T04:04:17;102000;;;5.39;74
84283;BME280;74440;52.600;21.450;2024-03-06T04:08:18;102000;;;5.21;74
84283;BME280;74440;52.600;21.450;2024-03-06T04:12:20;102000;;;5.24;74
84283;BME280;74440;52.600;21.450;2024-03-06T04:16:21;102000;;;5.24;74
84283;BME280;74440;52.600;21.450;2024-03-06T04:20:22;102000;;;5.27;74
84283;BME280;74440;52.600;21.450;2024-03-06T04:24:41;102000;;;5.30;74
84283;BME280;74440;52.600;21.450;2024-03-06T04:28:43;102100;;;5.10;74
84283;BME280;74440;52.600;21.450;2024-03-06T04:32:45;102100;;;5.10;74
84283;BME280;74440;52.600;21.450;2024-03-06T04:36:46;102100;;;5.10;74
84283;BME280;74440;52.600;21.450;2024-03-06T04:40:48;102100;;;5.14;73
84283;BME280;74440;52.600;21.450;2024-03-06T04:44:49;102100;;;4.92;74
84283;BME280;74440;52.600;21.450;2024-03-06T04:48:53;102100;;;4.93;74
84283;BME280;74440;52.600;21.450;2024-03-06T04:52:54;102100;;;4.96;74
84283;BME280;74440;52.600;21.450;2024-03-06T04:56:57;102100;;;4.97;74
84283;BME280;74440;52.600;21.450;2024-03-06T05:01:08;102100;;;4.95;75
84283;BME280;74440;52.600;21.450;2024-03-06T05:05:09;102100;;;4.74;75
84283;BME280;74440;52.600;21.450;2024-03-06T05:09:11;102100;;;4.74;75
84283;BME280;74440;52.600;21.450;2024-03-06T05:13:12;102100;;;4.80;75
84283;BME280;74440;52.600;21.450;2024-03-06T05:17:20;102100;;;4.82;75
84283;BME280;74440;52.600;21.450;2024-03-06T05:21:40;102100;;;4.77;76
84283;BME280;74440;52.600;21.450;2024-03-06T05:25:41;102100;;;4.63;76
84283;BME280;74440;52.600;21.450;2024-03-06T05:29:43;102100;;;4.63;76
84283;BME280;74440;52.600;21.450;2024-03-06T05:33:46;102100;;;4.61;76
84283;BME280;74440;52.600;21.450;2024-03-06T05:37:48;102100;;;4.64;75
84283;BME280;74440;52.600;21.450;2024-03-06T05:41:55;102100;;;4.46;76
84283;BME280;74440;52.600;21.450;2024-03-06T05:45:56;102100;;;4.45;75
84283;BME280;74440;52.600;21.450;2024-03-06T05:50:00;102100;;;4.48;74
84283;BME280;74440;52.600;21.450;2024-03-06T05:54:07;102100;;;4.47;74
84283;BME280;74440;52.600;21.450;2024-03-06T05:58:11;102100;;;4.49;74
84283;BME280;74440;52.600;21.450;2024-03-06T06:02:13;102100;;;4.32;74
84283;BME280;74440;52.600;21.450;2024-03-06T06:06:20;102100;;;4.32;74
84283;BME280;74440;52.600;21.450;2024-03-06T06:10:21;102100;;;4.31;74
84283;BME280;74440;52.600;21.450;2024-03-06T06:14:27;102100;;;4.38;74
84283;BME280;74440;52.600;21.450;2024-03-06T06:18:43;102200;;;4.38;73
84283;BME280;74440;52.600;21.450;2024-03-06T06:22:52;102100;;;4.25;74
84283;BME280;74440;52.600;21.450;2024-03-06T06:27:04;102100;;;4.31;73
84283;BME280;74440;52.600;21.450;2024-03-06T06:31:05;102200;;;4.37;73
84283;BME280;74440;52.600;21.450;2024-03-06T06:35:07;102200;;;4.45;72
84283;BME280;74440;52.600;21.450;2024-03-06T06:39:21;102200;;;4.46;72
84283;BME280;74440;52.600;21.450;2024-03-06T06:43:52;102200;;;4.52;71
84283;BME280;74440;52.600;21.450;2024-03-06T06:47:53;102200;;;4.34;71
84283;BME280;74440;52.600;21.450;2024-03-06T06:51:55;102200;;;4.41;71
84283;BME280;74440;52.600;21.450;2024-03-06T06:55:57;102200;;;4.56;70
84283;BME280;74440;52.600;21.450;2024-03-06T07:00:00;102200;;;4.76;69
84283;BME280;74440;52.600;21.450;2024-03-06T07:04:01;102200;;;4.84;69
84283;BME280;74440;52.600;21.450;2024-03-06T07:08:03;102200;;;5.07;68
84283;BME280;74440;52.600;21.450;2024-03-06T07:12:05;102200;;;5.21;67
84283;BME280;74440;52.600;21.450;2024-03-06T07:16:08;102200;;;5.34;66
84283;BME280;74440;52.600;21.450;2024-03-06T07:20:21;102200;;;5.51;65
84283;BME280;74440;52.600;21.450;2024-03-06T07:24:22;102200;;;5.44;65
84283;BME280;74440;52.600;21.450;2024-03-06T07:28:24;102200;;;5.87;63
84283;BME280;74440;52.600;21.450;2024-03-06T07:32:26;102200;;;6.98;61
84283;BME280;74440;52.600;21.450;2024-03-06T07:36:27;102200;;;8.52;56
84283;BME280;74440;52.600;21.450;2024-03-06T07:40:32;102200;;;8.64;54
84283;BME280;74440;52.600;21.450;2024-03-06T07:44:34;102200;;;9.13;53
84283;BME280;74440;52.600;21.450;2024-03-06T07:48:37;102200;;;9.06;52
84283;BME280;74440;52.600;21.450;2024-03-06T07:52:39;102200;;;9.88;50
84283;BME280;74440;52.600;21.450;2024-03-06T07:56:50;102200;;;9.36;51
84283;BME280;74440;52.600;21.450;2024-03-06T08:00:54;102200;;;9.60;51
84283;BME280;74440;52.600;21.450;2024-03-06T08:04:57;102200;;;9.47;50
84283;BME280;74440;52.600;21.450;2024-03-06T08:08:59;102200;;;9.29;51
84283;BME280;74440;52.600;21.450;2024-03-06T08:13:02;102200;;;8.78;52
84283;BME280;74440;52.600;21.450;2024-03-06T08:17:04;102200;;;8.25;53
84283;BME280;74440;52.600;21.450;2024-03-06T08:21:05;102200;;;7.90;54
84283;BME280;74440;52.600;21.450;2024-03-06T08:25:09;102200;;;6.94;55
84283;BME280;74440;52.600;21.450;2024-03-06T08:29:11;102200;;;6.43;57
84283;BME280;74440;52.600;21.450;2024-03-06T08:33:20;102200;;;6.25;58
84283;BME280;74440;52.600;21.450;2024-03-06T08:37:23;102200;;;6.17;59
84283;BME280;74440;52.600;21.450;2024-03-06T08:41:24;102300;;;6.48;58
84283;BME280;74440;52.600;21.450;2024-03-06T08:45:26;102300;;;6.59;57
84283;BME280;74440;52.600;21.450;2024-03-06T08:49:27;102300;;;7.56;55
84283;BME280;74440;52.600;21.450;2024-03-06T08:53:29;102300;;;9.04;53
84283;BME280;74440;52.600;21.450;2024-03-06T08:57:30;102300;;;8.83;51
84283;BME280;74440;52.600;21.450;2024-03-06T09:01:32;102200;;;9.44;51
84283;BME280;74440;52.600;21.450;2024-03-06T09:05:33;102300;;;10.83;49
84283;BME280;74440;52.600;21.450;2024-03-06T09:09:50;102300;;;11.80;45
84283;BME280;74440;52.600;21.450;2024-03-06T09:13:57;102300;;;10.93;46
84283;BME280;74440;52.600;21.450;2024-03-06T09:17:58;102300;;;10.80;46
84283;BME280;74440;52.600;21.450;2024-03-06T09:22:00;102300;;;10.41;46
84283;BME280;74440;52.600;21.450;2024-03-06T09:26:01;102300;;;11.26;45
84283;BME280;74440;52.600;21.450;2024-03-06T09:30:03;102300;;;11.13;45
84283;BME280;74440;52.600;21.450;2024-03-06T09:34:05;102300;;;11.01;45
84283;BME280;74440;52.600;21.450;2024-03-06T09:38:06;102300;;;11.12;44
84283;BME280;74440;52.600;21.450;2024-03-06T09:42:07;102300;;;10.15;46
84283;BME280;74440;52.600;21.450;2024-03-06T09:46:19;102300;;;9.74;47
84283;BME280;74440;52.600;21.450;2024-03-06T09:50:24;102300;;;11.26;44
84283;BME280;74440;52.600;21.450;2024-03-06T09:54:29;102300;;;13.65;41
84283;BME280;74440;52.600;21.450;2024-03-06T09:58:31;102300;;;13.84;39
84283;BME280;74440;52.600;21.450;2024-03-06T10:02:41;102300;;;12.35;41
84283;BME280;74440;52.600;21.450;2024-03-06T10:06:54;102300;;;12.94;39
84283;BME280;74440;52.600;21.450;2024-03-06T10:10:59;102300;;;12.86;39
84283;BME280;74440;52.600;21.450;2024-03-06T10:15:01;102300;;;13.98;38
84283;BME280;74440;52.600;21.450;2024-03-06T10:23:18;102300;;;12.69;39
84283;BME280;74440;52.600;21.450;2024-03-06T10:27:22;102300;;;11.57;41
84283;BME280;74440;52.600;21.450;2024-03-06T10:31:27;102300;;;11.13;43
84283;BME280;74440;52.600;21.450;2024-03-06T10:35:32;102300;;;13.14;39
84283;BME280;74440;52.600;21.450;2024-03-06T10:39:34;102300;;;13.42;38
84283;BME280;74440;52.600;21.450;2024-03-06T10:43:39;102300;;;12.99;38
84283;BME280;74440;52.600;21.450;2024-03-06T10:47:53;102300;;;12.47;39
84283;BME280;74440;52.600;21.450;2024-03-06T10:52:01;102300;;;13.16;38
84283;BME280;74440;52.600;21.450;2024-03-06T10:56:08;102300;;;13.49;37
84283;BME280;74440;52.600;21.450;2024-03-06T11:00:11;102300;;;12.41;39
84283;BME280;74440;52.600;21.450;2024-03-06T11:04:20;102300;;;12.13;40
84283;BME280;74440;52.600;21.450;2024-03-06T11:08:24;102300;;;11.97;40
84283;BME280;74440;52.600;21.450;2024-03-06T11:12:37;102300;;;11.22;40
84283;BME280;74440;52.600;21.450;2024-03-06T11:20:52;102300;;;10.90;42
84283;BME280;74440;52.600;21.450;2024-03-06T11:24:59;102300;;;10.51;42
84283;BME280;74440;52.600;21.450;2024-03-06T11:29:00;102300;;;9.89;43
84283;BME280;74440;52.600;21.450;2024-03-06T11:33:03;102300;;;10.07;43
84283;BME280;74440;52.600;21.450;2024-03-06T11:37:07;102300;;;10.07;43
84283;BME280;74440;52.600;21.450;2024-03-06T11:41:10;102300;;;9.46;44
84283;BME280;74440;52.600;21.450;2024-03-06T11:45:13;102300;;;8.89;45
84283;BME280;74440;52.600;21.450;2024-03-06T11:49:28;102300;;;8.63;46
84283;BME280;74440;52.600;21.450;2024-03-06T11:53:34;102300;;;8.20;46
84283;BME280;74440;52.600;21.450;2024-03-06T11:57:46;102300;;;8.20;47
84283;BME280;74440;52.600;21.450;2024-03-06T12:01:48;102300;;;7.84;47
84283;BME280;74440;52.600;21.450;2024-03-06T12:05:50;102300;;;7.57;48
84283;BME280;74440;52.600;21.450;2024-03-06T12:09:59;102300;;;7.20;48
84283;BME280;74440;52.600;21.450;2024-03-06T12:14:01;102300;;;7.32;48
84283;BME280;74440;52.600;21.450;2024-03-06T12:18:03;102300;;;7.32;49
84283;BME280;74440;52.600;21.450;2024-03-06T12:22:06;102300;;;6.97;49
84283;BME280;74440;52.600;21.450;2024-03-06T12:26:09;102400;;;6.84;51
84283;BME280;74440;52.600;21.450;2024-03-06T12:30:12;102400;;;6.61;51
84283;BME280;74440;52.600;21.450;2024-03-06T12:34:14;102400;;;6.58;50
84283;BME280;74440;52.600;21.450;2024-03-06T12:38:18;102400;;;6.61;49
84283;BME280;74440;52.600;21.450;2024-03-06T12:42:20;102400;;;6.83;49
84283;BME280;74440;52.600;21.450;2024-03-06T12:46:29;102400;;;7.43;48
84283;BME280;74440;52.600;21.450;2024-03-06T12:50:32;102400;;;7.55;48
84283;BME280;74440;52.600;21.450;2024-03-06T12:54:33;102300;;;7.47;47
84283;BME280;74440;52.600;21.450;2024-03-06T12:58:35;102400;;;7.23;48
84283;BME280;74440;52.600;21.450;2024-03-06T13:02:37;102400;;;6.99;49
84283;BME280;74440;52.600;21.450;2024-03-06T13:06:57;102400;;;6.60;49
84283;BME280;74440;52.600;21.450;2024-03-06T13:10:59;102400;;;6.64;49
84283;BME280;74440;52.600;21.450;2024-03-06T13:15:00;102400;;;6.97;48
84283;BME280;74440;52.600;21.450;2024-03-06T13:19:02;102400;;;8.09;45
84283;BME280;74440;52.600;21.450;2024-03-06T13:23:04;102400;;;8.57;44
84283;BME280;74440;52.600;21.450;2024-03-06T13:27:06;102400;;;8.88;43
84283;BME280;74440;52.600;21.450;2024-03-06T13:31:09;102400;;;9.28;43
84283;BME280;74440;52.600;21.450;2024-03-06T13:35:10;102300;;;9.37;43
84283;BME280;74440;52.600;21.450;2024-03-06T13:39:26;102300;;;9.76;42
84283;BME280;74440;52.600;21.450;2024-03-06T13:43:28;102400;;;9.91;42
84283;BME280;74440;52.600;21.450;2024-03-06T13:47:30;102400;;;9.54;41
84283;BME280;74440;52.600;21.450;2024-03-06T13:51:31;102400;;;9.11;43
84283;BME280;74440;52.600;21.450;2024-03-06T13:55:33;102400;;;9.03;44
84283;BME280;74440;52.600;21.450;2024-03-06T13:59:36;102300;;;8.95;45
84283;BME280;74440;52.600;21.450;2024-03-06T14:03:38;102300;;;8.83;44
84283;BME280;74440;52.600;21.450;2024-03-06T14:07:40;102400;;;8.73;44
84283;BME280;74440;52.600;21.450;2024-03-06T14:11:42;102300;;;8.38;43
84283;BME280;74440;52.600;21.450;2024-03-06T14:15:56;102400;;;8.16;45
84283;BME280;74440;52.600;21.450;2024-03-06T14:20:01;102400;;;8.20;45
84283;BME280;74440;52.600;21.450;2024-03-06T14:24:04;102400;;;8.46;45
84283;BME280;74440;52.600;21.450;2024-03-06T14:28:09;102400;;;8.24;45
84283;BME280;74440;52.600;21.450;2024-03-06T14:32:11;102400;;;7.91;46
84283;BME280;74440;52.600;21.450;2024-03-06T14:36:27;102400;;;7.58;47
84283;BME280;74440;52.600;21.450;2024-03-06T14:40:29;102400;;;7.10;47
84283;BME280;74440;52.600;21.450;2024-03-06T14:44:32;102400;;;6.92;48
84283;BME280;74440;52.600;21.450;2024-03-06T14:48:33;102400;;;6.89;49
84283;BME280;74440;52.600;21.450;2024-03-06T14:52:35;102400;;;6.89;49
84283;BME280;74440;52.600;21.450;2024-03-06T14:56:36;102400;;;6.62;49
84283;BME280;74440;52.600;21.450;2024-03-06T15:00:38;102400;;;6.51;49
84283;BME280;74440;52.600;21.450;2024-03-06T15:04:39;102400;;;6.45;49
84283;BME280;74440;52.600;21.450;2024-03-06T15:08:41;102400;;;6.38;50
84283;BME280;74440;52.600;21.450;2024-03-06T15:12:56;102400;;;6.33;50
84283;BME280;74440;52.600;21.450;2024-03-06T15:16:58;102400;;;6.13;50
84283;BME280;74440;52.600;21.450;2024-03-06T15:20:59;102400;;;6.11;50
84283;BME280;74440;52.600;21.450;2024-03-06T15:25:01;102400;;;6.10;50
84283;BME280;74440;52.600;21.450;2024-03-06T15:29:02;102400;;;6.12;51
84283;BME280;74440;52.600;21.450;2024-03-06T15:33:06;102400;;;5.90;51
84283;BME280;74440;52.600;21.450;2024-03-06T15:37:08;102400;;;5.96;52
84283;BME280;74440;52.600;21.450;2024-03-06T15:41:09;102400;;;5.95;52
84283;BME280;74440;52.600;21.450;2024-03-06T15:45:11;102400;;;6.03;52
84283;BME280;74440;52.600;21.450;2024-03-06T15:49:25;102400;;;6.04;52
84283;BME280;74440;52.600;21.450;2024-03-06T15:53:27;102400;;;5.86;52
84283;BME280;74440;52.600;21.450;2024-03-06T15:57:30;102400;;;5.85;52
84283;BME280;74440;52.600;21.450;2024-03-06T16:01:33;102400;;;5.86;52
84283;BME280;74440;52.600;21.450;2024-03-06T16:05:38;102400;;;5.91;53
84283;BME280;74440;52.600;21.450;2024-03-06T16:09:39;102400;;;5.71;53
84283;BME280;74440;52.600;21.450;2024-03-06T16:13:41;102400;;;5.73;53
84283;BME280;74440;52.600;21.450;2024-03-06T16:17:43;102400;;;5.73;53
84283;BME280;74440;52.600;21.450;2024-03-06T16:21:44;102400;;;5.74;52
84283;BME280;74440;52.600;21.450;2024-03-06T16:25:56;102400;;;5.73;53
84283;BME280;74440;52.600;21.450;2024-03-06T16:29:57;102400;;;5.53;53
84283;BME280;74440;52.600;21.450;2024-03-06T16:33:59;102400;;;5.54;53
84283;BME280;74440;52.600;21.450;2024-03-06T16:38:00;102400;;;5.56;53
84283;BME280;74440;52.600;21.450;2024-03-06T16:42:07;102500;;;5.61;53
84283;BME280;74440;52.600;21.450;2024-03-06T16:46:28;102500;;;5.55;53
84283;BME280;74440;52.600;21.450;2024-03-06T16:50:31;102500;;;5.38;54
84283;BME280;74440;52.600;21.450;2024-03-06T16:54:37;102500;;;5.36;54
84283;BME280;74440;52.600;21.450;2024-03-06T16:58:40;102500;;;5.37;53
84283;BME280;74440;52.600;21.450;2024-03-06T17:02:41;102500;;;5.42;53
84283;BME280;74440;52.600;21.450;2024-03-06T17:06:59;102500;;;5.37;53
84283;BME280;74440;52.600;21.450;2024-03-06T17:11:09;102500;;;5.21;54
84283;BME280;74440;52.600;21.450;2024-03-06T17:15:11;102500;;;5.29;54
84283;BME280;74440;52.600;21.450;2024-03-06T17:19:18;102500;;;5.31;54
84283;BME280;74440;52.600;21.450;2024-03-06T17:23:24;102500;;;5.28;54
84283;BME280;74440;52.600;21.450;2024-03-06T17:27:31;102500;;;5.25;54
84283;BME280;74440;52.600;21.450;2024-03-06T17:31:32;102500;;;5.07;55
84283;BME280;74440;52.600;21.450;2024-03-06T17:35:36;102500;;;5.08;55
84283;BME280;74440;52.600;21.450;2024-03-06T17:39:37;102500;;;5.08;55
84283;BME280;74440;52.600;21.450;2024-03-06T17:43:40;102500;;;5.12;55
84283;BME280;74440;52.600;21.450;2024-03-06T17:47:41;102500;;;4.92;56
84283;BME280;74440;52.600;21.450;2024-03-06T17:51:42;102500;;;4.92;56
84283;BME280;74440;52.600;21.450;2024-03-06T17:55:44;102500;;;4.87;56
84283;BME280;74440;52.600;21.450;2024-03-06T17:59:51;102500;;;4.94;56
84283;BME280;74440;52.600;21.450;2024-03-06T18:04:00;102500;;;5.02;56
84283;BME280;74440;52.600;21.450;2024-03-06T18:08:14;102500;;;4.78;56
84283;BME280;74440;52.600;21.450;2024-03-06T18:12:20;102500;;;4.83;56
84283;BME280;74440;52.600;21.450;2024-03-06T18:16:21;102500;;;4.86;56
84283;BME280;74440;52.600;21.450;2024-03-06T18:20:22;102500;;;4.88;56
84283;BME280;74440;52.600;21.450;2024-03-06T18:24:36;102500;;;4.86;56
84283;BME280;74440;52.600;21.450;2024-03-06T18:28:37;102500;;;4.66;56
84283;BME280;74440;52.600;21.450;2024-03-06T18:32:40;102500;;;4.68;56
84283;BME280;74440;52.600;21.450;2024-03-06T18:36:45;102500;;;4.73;56
84283;BME280;74440;52.600;21.450;2024-03-06T18:40:47;102500;;;4.81;56
84283;BME280;74440;52.600;21.450;2024-03-06T18:44:48;102500;;;4.62;56
84283;BME280;74440;52.600;21.450;2024-03-06T18:48:50;102500;;;4.64;56
84283;BME280;74440;52.600;21.450;2024-03-06T18:52:51;102500;;;4.67;56
84283;BME280;74440;52.600;21.450;2024-03-06T18:56:55;102600;;;4.74;56
84283;BME280;74440;52.600;21.450;2024-03-06T19:01:04;102600;;;4.78;56
84283;BME280;74440;52.600;21.450;2024-03-06T19:05:06;102600;;;4.60;56
84283;BME280;74440;52.600;21.450;2024-03-06T19:09:10;102600;;;4.62;56
84283;BME280;74440;52.600;21.450;2024-03-06T19:13:11;102600;;;4.64;55
84283;BME280;74440;52.600;21.450;2024-03-06T19:17:13;102600;;;4.65;55
84283;BME280;74440;52.600;21.450;2024-03-06T19:21:14;102600;;;4.41;55
84283;BME280;74440;52.600;21.450;2024-03-06T19:25:15;102600;;;4.37;55
84283;BME280;74440;52.600;21.450;2024-03-06T19:29:17;102600;;;4.33;55
84283;BME280;74440;52.600;21.450;2024-03-06T19:33:19;102600;;;4.27;55
84283;BME280;74440;52.600;21.450;2024-03-06T19:37:34;102600;;;4.18;55
84283;BME280;74440;52.600;21.450;2024-03-06T19:41:36;102600;;;3.92;55
84283;BME280;74440;52.600;21.450;2024-03-06T19:45:38;102600;;;3.87;55
84283;BME280;74440;52.600;21.450;2024-03-06T19:49:40;102600;;;3.90;55
84283;BME280;74440;52.600;21.450;2024-03-06T19:53:41;102600;;;3.92;55
84283;BME280;74440;52.600;21.450;2024-03-06T19:57:43;102600;;;3.65;55
84283;BME280;74440;52.600;21.450;2024-03-06T20:01:44;102600;;;3.65;55
84283;BME280;74440;52.600;21.450;2024-03-06T20:05:46;102600;;;3.64;56
84283;BME280;74440;52.600;21.450;2024-03-06T20:09:49;102600;;;3.66;56
84283;BME280;74440;52.600;21.450;2024-03-06T20:14:03;102600;;;3.59;56
84283;BME280;74440;52.600;21.450;2024-03-06T20:18:05;102600;;;3.30;56
84283;BME280;74440;52.600;21.450;2024-03-06T20:22:06;102600;;;3.24;56
84283;BME280;74440;52.600;21.450;2024-03-06T20:26:09;102600;;;3.22;56
84283;BME280;74440;52.600;21.450;2024-03-06T20:30:12;102600;;;3.22;56
84283;BME280;74440;52.600;21.450;2024-03-06T20:34:13;102600;;;2.94;57
84283;BME280;74440;52.600;21.450;2024-03-06T20:38:17;102600;;;2.83;57
84283;BME280;74440;52.600;21.450;2024-03-06T20:42:19;102600;;;2.76;58
84283;BME280;74440;52.600;21.450;2024-03-06T20:46:21;102600;;;2.71;58
84283;BME280;74440;52.600;21.450;2024-03-06T20:50:34;102600;;;2.64;58
84283;BME280;74440;52.600;21.450;2024-03-06T20:54:36;102600;;;2.39;59
84283;BME280;74440;52.600;21.450;2024-03-06T20:58:37;102600;;;2.37;59
84283;BME280;74440;52.600;21.450;2024-03-06T21:02:39;102600;;;2.30;59
84283;BME280;74440;52.600;21.450;2024-03-06T21:06:40;102600;;;2.31;59
84283;BME280;74440;52.600;21.450;2024-03-06T21:10:42;102600;;;2.06;59
84283;BME280;74440;52.600;21.450;2024-03-06T21:14:45;102600;;;2.05;59
84283;BME280;74440;52.600;21.450;2024-03-06T21:18:46;102600;;;2.02;59
84283;BME280;74440;52.600;21.450;2024-03-06T21:22:48;102600;;;2.03;59
84283;BME280;74440;52.600;21.450;2024-03-06T21:27:03;102600;;;1.98;60
84283;BME280;74440;52.600;21.450;2024-03-06T21:31:06;102600;;;1.75;60
84283;BME280;74440;52.600;21.450;2024-03-06T21:35:08;102600;;;1.74;60
84283;BME280;74440;52.600;21.450;2024-03-06T21:39:11;102600;;;1.74;59
84283;BME280;74440;52.600;21.450;2024-03-06T21:43:15;102600;;;1.78;59
84283;BME280;74440;52.600;21.450;2024-03-06T21:47:17;102600;;;1.56;60
84283;BME280;74440;52.600;21.450;2024-03-06T21:51:18;102600;;;1.55;60
84283;BME280;74440;52.600;21.450;2024-03-06T21:55:20;102700;;;1.56;60
84283;BME280;74440;52.600;21.450;2024-03-06T21:59:22;102600;;;1.57;59
84283;BME280;74440;52.600;21.450;2024-03-06T22:03:33;102600;;;1.55;60
84283;BME280;74440;52.600;21.450;2024-03-06T22:07:35;102600;;;1.32;60
84283;BME280;74440;52.600;21.450;2024-03-06T22:11:41;102600;;;1.30;61
84283;BME280;74440;52.600;21.450;2024-03-06T22:15:43;102700;;;1.29;61
84283;BME280;74440;52.600;21.450;2024-03-06T22:19:44;102600;;;1.31;61
84283;BME280;74440;52.600;21.450;2024-03-06T22:23:46;102600;;;1.06;62
84283;BME280;74440;52.600;21.450;2024-03-06T22:27:47;102700;;;1.07;63
84283;BME280;74440;52.600;21.450;2024-03-06T22:31:49;102700;;;1.11;63
84283;BME280;74440;52.600;21.450;2024-03-06T22:35:50;102700;;;1.17;63
84283;BME280;74440;52.600;21.450;2024-03-06T22:40:04;102700;;;1.20;63
84283;BME280;74440;52.600;21.450;2024-03-06T22:44:05;102700;;;1.02;63
84283;BME280;74440;52.600;21.450;2024-03-06T22:48:07;102700;;;0.99;63
84283;BME280;74440;52.600;21.450;2024-03-06T22:52:08;102700;;;0.98;63
84283;BME280;74440;52.600;21.450;2024-03-06T22:56:10;102700;;;1.03;63
84283;BME280;74440;52.600;21.450;2024-03-06T23:00:12;102700;;;0.78;64
84283;BME280;74440;52.600;21.450;2024-03-06T23:04:27;102700;;;0.78;64
84283;BME280;74440;52.600;21.450;2024-03-06T23:08:28;102700;;;0.76;64